sensor_id;sensor_type;location;lat;lon;timestamp;pressure;altitude;pressure_sealevel;temperature;humidity
3917;BME280;1973;50.518;7.318;2023-05-22T00:01:58;100650.41;;;17.46;100.00
3917;BME280;1973;50.518;7.318;2023-05-22T00:04:24;100648.16;;;17.43;100.00
3917;BME280;1973;50.518;7.318;2023-05-22T00:06:55;100645.31;;;17.38;100.00
3917;BME280;1973;50.518;7.318;2023-05-22T00:09:23;100645.84;;;17.35;100.00
3917;BME280;1973;50.518;7.318;2023-05-22T00:11:50;100642.50;;;17.33;100.00
3917;BME280;1973;50.518;7.318;2023-05-22T00:14:17;100641.06;;;17.30;100.00
3917;BME280;1973;50.518;7.318;2023-05-22T00:16:43;100637.72;;;17.28;100.00
3917;BME280;1973;50.518;7.318;2023-05-22T00:19:10;100637.13;;;17.26;100.00
3917;BME280;1973;50.518;7.318;2023-05-22T00:21:42;100635.72;;;17.24;100.00
3917;BME280;1973;50.518;7.318;2023-05-22T00:24:08;100628.16;;;17.19;100.00
3917;BME280;1973;50.518;7.318;2023-05-22T00:26:35;100632.56;;;17.15;100.00
3917;BME280;1973;50.518;7.318;2023-05-22T00:29:01;100633.63;;;17.09;100.00
3917;BME280;1973;50.518;7.318;2023-05-22T00:31:28;100632.22;;;17.07;100.00
3917;BME280;1973;50.518;7.318;2023-05-22T00:33:55;100634.69;;;17.03;100.00
3917;BME280;1973;50.518;7.318;2023-05-22T00:36:21;100642.97;;;16.98;100.00
3917;BME280;1973;50.518;7.318;2023-05-22T00:38:48;100639.63;;;16.96;100.00
3917;BME280;1973;50.518;7.318;2023-05-22T00:41:14;100631.47;;;16.89;100.00
3917;BME280;1973;50.518;7.318;2023-05-22T00:43:41;100632.59;;;16.88;100.00
3917;BME280;1973;50.518;7.318;2023-05-22T00:46:07;100635.84;;;16.85;100.00
3917;BME280;1973;50.518;7.318;2023-05-22T00:48:35;100630.28;;;16.85;100.00
3917;BME280;1973;50.518;7.318;2023-05-22T00:51:01;100625.84;;;16.84;100.00
3917;BME280;1973;50.518;7.318;2023-05-22T00:53:29;100627.78;;;16.84;100.00
3917;BME280;1973;50.518;7.318;2023-05-22T00:55:57;100631.34;;;16.79;100.00
3917;BME280;1973;50.518;7.318;2023-05-22T00:58:25;100640.47;;;16.75;100.00
3917;BME280;1973;50.518;7.318;2023-05-22T01:00:52;100641.00;;;16.72;100.00
3917;BME280;1973;50.518;7.318;2023-05-22T01:03:18;100643.47;;;16.68;100.00
3917;BME280;1973;50.518;7.318;2023-05-22T01:05:51;100642.28;;;16.64;100.00
3917;BME280;1973;50.518;7.318;2023-05-22T01:08:19;100640.59;;;16.63;100.00
3917;BME280;1973;50.518;7.318;2023-05-22T01:10:50;100637.25;;;16.61;100.00
3917;BME280;1973;50.518;7.318;2023-05-22T01:13:36;100641.72;;;16.62;100.00
3917;BME280;1973;50.518;7.318;2023-05-22T01:16:29;100647.81;;;16.59;100.00
3917;BME280;1973;50.518;7.318;2023-05-22T01:21:40;100633.81;;;16.54;100.00
3917;BME280;1973;50.518;7.318;2023-05-22T01:24:38;100635.97;;;16.52;100.00
3917;BME280;1973;50.518;7.318;2023-05-22T01:27:41;100632.06;;;16.48;100.00
3917;BME280;1973;50.518;7.318;2023-05-22T01:32:45;100633.69;;;16.44;100.00
3917;BME280;1973;50.518;7.318;2023-05-22T01:35:16;100650.34;;;16.44;100.00
3917;BME280;1973;50.518;7.318;2023-05-22T01:37:44;100644.72;;;16.39;100.00
3917;BME280;1973;50.518;7.318;2023-05-22T01:40:12;100643.03;;;16.38;100.00
3917;BME280;1973;50.518;7.318;2023-05-22T01:42:38;100644.41;;;16.35;100.00
3917;BME280;1973;50.518;7.318;2023-05-22T01:45:09;100644.91;;;16.32;100.00
3917;BME280;1973;50.518;7.318;2023-05-22T01:47:36;100647.09;;;16.30;100.00
3917;BME280;1973;50.518;7.318;2023-05-22T01:50:03;100636.25;;;16.29;100.00
3917;BME280;1973;50.518;7.318;2023-05-22T01:55:07;100640.63;;;16.25;100.00
3917;BME280;1973;50.518;7.318;2023-05-22T02:00:27;100652.44;;;16.15;100.00
3917;BME280;1973;50.518;7.318;2023-05-22T02:03:00;100638.81;;;16.14;100.00
3917;BME280;1973;50.518;7.318;2023-05-22T02:05:32;100642.69;;;16.13;100.00
3917;BME280;1973;50.518;7.318;2023-05-22T02:08:01;100642.97;;;16.11;100.00
3917;BME280;1973;50.518;7.318;2023-05-22T02:10:29;100644.03;;;16.10;100.00
3917;BME280;1973;50.518;7.318;2023-05-22T02:12:56;100649.84;;;16.08;100.00
3917;BME280;1973;50.518;7.318;2023-05-22T02:15:23;100650.69;;;16.09;100.00
3917;BME280;1973;50.518;7.318;2023-05-22T02:17:49;100649.84;;;16.08;100.00
3917;BME280;1973;50.518;7.318;2023-05-22T02:20:18;100646.75;;;16.05;100.00
3917;BME280;1973;50.518;7.318;2023-05-22T02:22:46;100640.84;;;16.01;100.00
3917;BME280;1973;50.518;7.318;2023-05-22T02:25:13;100644.72;;;16.00;100.00
3917;BME280;1973;50.518;7.318;2023-05-22T02:27:43;100633.28;;;15.97;100.00
3917;BME280;1973;50.518;7.318;2023-05-22T02:30:11;100632.94;;;15.93;100.00
3917;BME280;1973;50.518;7.318;2023-05-22T02:32:38;100638.50;;;15.93;100.00
3917;BME280;1973;50.518;7.318;2023-05-22T02:35:05;100628.50;;;15.92;100.00
3917;BME280;1973;50.518;7.318;2023-05-22T02:37:32;100636.25;;;15.90;100.00
3917;BME280;1973;50.518;7.318;2023-05-22T02:39:59;100628.44;;;15.87;100.00
3917;BME280;1973;50.518;7.318;2023-05-22T02:42:25;100627.81;;;15.85;100.00
3917;BME280;1973;50.518;7.318;2023-05-22T02:44:52;100637.50;;;15.83;100.00
3917;BME280;1973;50.518;7.318;2023-05-22T02:47:18;100637.19;;;15.79;100.00
3917;BME280;1973;50.518;7.318;2023-05-22T02:49:45;100631.28;;;15.76;100.00
3917;BME280;1973;50.518;7.318;2023-05-22T02:52:12;100630.72;;;15.74;100.00
3917;BME280;1973;50.518;7.318;2023-05-22T02:54:38;100631.81;;;15.73;100.00
3917;BME280;1973;50.518;7.318;2023-05-22T02:57:05;100636.53;;;15.72;100.00
3917;BME280;1973;50.518;7.318;2023-05-22T02:59:31;100634.81;;;15.71;100.00
3917;BME280;1973;50.518;7.318;2023-05-22T03:01:58;100630.41;;;15.70;100.00
3917;BME280;1973;50.518;7.318;2023-05-22T03:04:24;100628.09;;;15.67;100.00
3917;BME280;1973;50.518;7.318;2023-05-22T03:06:51;100634.16;;;15.64;100.00
3917;BME280;1973;50.518;7.318;2023-05-22T03:09:17;100633.59;;;15.62;100.00
3917;BME280;1973;50.518;7.318;2023-05-22T03:11:45;100634.66;;;15.61;100.00
3917;BME280;1973;50.518;7.318;2023-05-22T03:14:12;100635.41;;;15.56;100.00
3917;BME280;1973;50.518;7.318;2023-05-22T03:16:38;100632.41;;;15.58;100.00
3917;BME280;1973;50.518;7.318;2023-05-22T03:19:09;100638.53;;;15.60;100.00
3917;BME280;1973;50.518;7.318;2023-05-22T03:21:36;100635.19;;;15.58;100.00
3917;BME280;1973;50.518;7.318;2023-05-22T03:24:03;100634.34;;;15.57;100.00
3917;BME280;1973;50.518;7.318;2023-05-22T03:26:30;100633.75;;;15.55;100.00
3917;BME280;1973;50.518;7.318;2023-05-22T03:28:56;100630.66;;;15.52;100.00
3917;BME280;1973;50.518;7.318;2023-05-22T03:31:23;100631.13;;;15.49;100.00
3917;BME280;1973;50.518;7.318;2023-05-22T03:33:51;100630.53;;;15.47;100.00
3917;BME280;1973;50.518;7.318;2023-05-22T03:36:19;100633.31;;;15.47;100.00
3917;BME280;1973;50.518;7.318;2023-05-22T03:38:46;100633.31;;;15.47;100.00
3917;BME280;1973;50.518;7.318;2023-05-22T03:41:13;100633.53;;;15.45;100.00
3917;BME280;1973;50.518;7.318;2023-05-22T03:43:39;100640.19;;;15.44;100.00
3917;BME280;1973;50.518;7.318;2023-05-22T03:46:10;100633.81;;;15.44;100.00
3917;BME280;1973;50.518;7.318;2023-05-22T03:48:37;100631.03;;;15.44;100.00
3917;BME280;1973;50.518;7.318;2023-05-22T03:51:04;100638.75;;;15.42;100.00
3917;BME280;1973;50.518;7.318;2023-05-22T03:53:31;100636.81;;;15.42;100.00
3917;BME280;1973;50.518;7.318;2023-05-22T03:55:57;100642.88;;;15.39;100.00
3917;BME280;1973;50.518;7.318;2023-05-22T03:58:24;100631.44;;;15.36;100.00
3917;BME280;1973;50.518;7.318;2023-05-22T04:00:54;100637.50;;;15.33;100.00
3917;BME280;1973;50.518;7.318;2023-05-22T04:03:24;100630.50;;;15.30;100.00
3917;BME280;1973;50.518;7.318;2023-05-22T04:05:50;100635.22;;;15.30;100.00
3917;BME280;1973;50.518;7.318;2023-05-22T04:08:17;100635.81;;;15.32;100.00
3917;BME280;1973;50.518;7.318;2023-05-22T04:10:43;100639.16;;;15.34;100.00
3917;BME280;1973;50.518;7.318;2023-05-22T04:13:15;100636.38;;;15.34;100.00
3917;BME280;1973;50.518;7.318;2023-05-22T04:15:42;100642.78;;;15.34;100.00
3917;BME280;1973;50.518;7.318;2023-05-22T04:18:12;100638.06;;;15.35;100.00
3917;BME280;1973;50.518;7.318;2023-05-22T04:20:39;100639.75;;;15.36;100.00
3917;BME280;1973;50.518;7.318;2023-05-22T04:23:06;100648.66;;;15.38;100.00
3917;BME280;1973;50.518;7.318;2023-05-22T04:25:33;100645.88;;;15.38;100.00
3917;BME280;1973;50.518;7.318;2023-05-22T04:27:59;100648.44;;;15.39;100.00
3917;BME280;1973;50.518;7.318;2023-05-22T04:30:30;100652.03;;;15.40;100.00
3917;BME280;1973;50.518;7.318;2023-05-22T04:32:59;100654.81;;;15.40;100.00
3917;BME280;1973;50.518;7.318;2023-05-22T04:35:26;100665.66;;;15.41;100.00
3917;BME280;1973;50.518;7.318;2023-05-22T04:37:58;100668.19;;;15.43;100.00
3917;BME280;1973;50.518;7.318;2023-05-22T04:40:28;100664.06;;;15.45;100.00
3917;BME280;1973;50.518;7.318;2023-05-22T04:42:55;100663.81;;;15.47;100.00
3917;BME280;1973;50.518;7.318;2023-05-22T04:45:25;100671.66;;;15.50;100.00
3917;BME280;1973;50.518;7.318;2023-05-22T04:47:54;100672.28;;;15.52;100.00
3917;BME280;1973;50.518;7.318;2023-05-22T04:50:21;100668.72;;;15.56;100.00
3917;BME280;1973;50.518;7.318;2023-05-22T04:52:49;100674.03;;;15.58;100.00
3917;BME280;1973;50.518;7.318;2023-05-22T04:55:15;100673.03;;;15.64;100.00
3917;BME280;1973;50.518;7.318;2023-05-22T04:57:42;100678.91;;;15.68;100.00
3917;BME280;1973;50.518;7.318;2023-05-22T05:00:13;100676.22;;;15.73;100.00
3917;BME280;1973;50.518;7.318;2023-05-22T05:02:41;100676.88;;;15.80;100.00
3917;BME280;1973;50.518;7.318;2023-05-22T05:05:08;100677.56;;;15.87;100.00
3917;BME280;1973;50.518;7.318;2023-05-22T05:07:38;100684.63;;;15.94;100.00
3917;BME280;1973;50.518;7.318;2023-05-22T05:10:05;100683.59;;;16.00;100.00
3917;BME280;1973;50.518;7.318;2023-05-22T05:12:32;100688.16;;;16.06;100.00
3917;BME280;1973;50.518;7.318;2023-05-22T05:14:59;100692.69;;;16.13;100.00
3917;BME280;1973;50.518;7.318;2023-05-22T05:17:25;100686.09;;;16.19;100.00
3917;BME280;1973;50.518;7.318;2023-05-22T05:19:52;100692.06;;;16.27;100.00
3917;BME280;1973;50.518;7.318;2023-05-22T05:22:19;100690.78;;;16.35;100.00
3917;BME280;1973;50.518;7.318;2023-05-22T05:24:45;100688.09;;;16.40;100.00
3917;BME280;1973;50.518;7.318;2023-05-22T05:27:12;100690.06;;;16.44;100.00
3917;BME280;1973;50.518;7.318;2023-05-22T05:29:39;100684.59;;;16.49;100.00
3917;BME280;1973;50.518;7.318;2023-05-22T05:32:06;100681.66;;;16.56;100.00
3917;BME280;1973;50.518;7.318;2023-05-22T05:34:33;100681.22;;;16.64;100.00
3917;BME280;1973;50.518;7.318;2023-05-22T05:37:00;100676.03;;;16.73;100.00
3917;BME280;1973;50.518;7.318;2023-05-22T05:39:28;100677.53;;;16.80;100.00
3917;BME280;1973;50.518;7.318;2023-05-22T05:41:55;100677.66;;;16.90;100.00
3917;BME280;1973;50.518;7.318;2023-05-22T05:44:21;100679.69;;;17.00;100.00
3917;BME280;1973;50.518;7.318;2023-05-22T05:46:47;100672.31;;;17.11;100.00
3917;BME280;1973;50.518;7.318;2023-05-22T05:49:14;100664.84;;;17.16;100.00
3917;BME280;1973;50.518;7.318;2023-05-22T05:51:40;100670.19;;;17.23;100.00
3917;BME280;1973;50.518;7.318;2023-05-22T05:54:07;100674.75;;;17.29;100.00
3917;BME280;1973;50.518;7.318;2023-05-22T05:56:33;100668.94;;;17.35;100.00
3917;BME280;1973;50.518;7.318;2023-05-22T05:59:00;100666.78;;;17.42;100.00
3917;BME280;1973;50.518;7.318;2023-05-22T06:01:26;100672.72;;;17.51;100.00
3917;BME280;1973;50.518;7.318;2023-05-22T06:03:53;100675.53;;;17.56;100.00
3917;BME280;1973;50.518;7.318;2023-05-22T06:06:20;100674.53;;;17.62;100.00
3917;BME280;1973;50.518;7.318;2023-05-22T06:08:46;100674.03;;;17.70;100.00
3917;BME280;1973;50.518;7.318;2023-05-22T06:11:13;100674.59;;;17.72;100.00
3917;BME280;1973;50.518;7.318;2023-05-22T06:13:39;100671.03;;;17.77;100.00
3917;BME280;1973;50.518;7.318;2023-05-22T06:16:06;100681.94;;;17.83;100.00
3917;BME280;1973;50.518;7.318;2023-05-22T06:18:33;100687.81;;;17.87;100.00
3917;BME280;1973;50.518;7.318;2023-05-22T06:20:59;100689.81;;;17.91;100.00
3917;BME280;1973;50.518;7.318;2023-05-22T06:23:26;100692.09;;;17.99;100.00
3917;BME280;1973;50.518;7.318;2023-05-22T06:25:52;100690.19;;;18.05;100.00
3917;BME280;1973;50.518;7.318;2023-05-22T06:28:19;100689.41;;;18.15;100.00
3917;BME280;1973;50.518;7.318;2023-05-22T06:30:45;100686.13;;;18.23;100.00
3917;BME280;1973;50.518;7.318;2023-05-22T06:33:12;100686.19;;;18.33;100.00
3917;BME280;1973;50.518;7.318;2023-05-22T06:35:40;100694.31;;;18.39;100.00
3917;BME280;1973;50.518;7.318;2023-05-22T06:38:07;100693.53;;;18.49;100.00
3917;BME280;1973;50.518;7.318;2023-05-22T06:40:33;100695.56;;;18.54;100.00
3917;BME280;1973;50.518;7.318;2023-05-22T06:43:00;100692.81;;;18.59;100.00
3917;BME280;1973;50.518;7.318;2023-05-22T06:45:26;100699.78;;;18.61;100.00
3917;BME280;1973;50.518;7.318;2023-05-22T06:47:53;100702.84;;;18.65;100.00
3917;BME280;1973;50.518;7.318;2023-05-22T06:50:20;100705.41;;;18.71;100.00
3917;BME280;1973;50.518;7.318;2023-05-22T06:52:47;100699.84;;;18.76;100.00
3917;BME280;1973;50.518;7.318;2023-05-22T06:55:14;100704.88;;;18.79;100.00
3917;BME280;1973;50.518;7.318;2023-05-22T06:57:41;100693.75;;;18.84;100.00
3917;BME280;1973;50.518;7.318;2023-05-22T07:00:08;100698.78;;;18.87;100.00
3917;BME280;1973;50.518;7.318;2023-05-22T07:02:37;100698.22;;;18.90;100.00
3917;BME280;1973;50.518;7.318;2023-05-22T07:05:04;100702.16;;;18.94;100.00
3917;BME280;1973;50.518;7.318;2023-05-22T07:07:30;100705.25;;;18.98;100.00
3917;BME280;1973;50.518;7.318;2023-05-22T07:09:57;100704.41;;;19.03;100.00
3917;BME280;1973;50.518;7.318;2023-05-22T07:12:23;100701.09;;;19.06;100.00
3917;BME280;1973;50.518;7.318;2023-05-22T07:14:53;100706.94;;;19.09;100.00
3917;BME280;1973;50.518;7.318;2023-05-22T07:17:19;100711.72;;;19.14;100.00
3917;BME280;1973;50.518;7.318;2023-05-22T07:19:47;100710.88;;;19.13;100.00
3917;BME280;1973;50.518;7.318;2023-05-22T07:22:14;100717.00;;;19.15;100.00
3917;BME280;1973;50.518;7.318;2023-05-22T07:24:41;100721.78;;;19.20;100.00
3917;BME280;1973;50.518;7.318;2023-05-22T07:27:08;100723.47;;;19.26;100.00
3917;BME280;1973;50.518;7.318;2023-05-22T07:29:34;100719.00;;;19.30;100.00
3917;BME280;1973;50.518;7.318;2023-05-22T07:32:01;100717.63;;;19.37;100.00
3917;BME280;1973;50.518;7.318;2023-05-22T07:34:28;100716.28;;;19.45;100.00
3917;BME280;1973;50.518;7.318;2023-05-22T07:37:00;100715.75;;;19.53;100.00
3917;BME280;1973;50.518;7.318;2023-05-22T07:39:26;100710.16;;;19.53;100.00
3917;BME280;1973;50.518;7.318;2023-05-22T07:41:53;100711.59;;;19.66;100.00
3917;BME280;1973;50.518;7.318;2023-05-22T07:44:22;100717.16;;;19.71;100.00
3917;BME280;1973;50.518;7.318;2023-05-22T07:46:48;100710.75;;;19.75;100.00
3917;BME280;1973;50.518;7.318;2023-05-22T07:49:15;100714.09;;;19.72;100.00
3917;BME280;1973;50.518;7.318;2023-05-22T07:51:45;100717.72;;;19.73;100.00
3917;BME280;1973;50.518;7.318;2023-05-22T07:54:11;100725.25;;;19.77;100.00
3917;BME280;1973;50.518;7.318;2023-05-22T07:56:41;100716.59;;;19.89;100.00
3917;BME280;1973;50.518;7.318;2023-05-22T07:59:08;100709.34;;;19.98;100.00
3917;BME280;1973;50.518;7.318;2023-05-22T08:01:37;100718.00;;;20.07;100.00
3917;BME280;1973;50.518;7.318;2023-05-22T08:04:04;100712.97;;;20.14;100.00
3917;BME280;1973;50.518;7.318;2023-05-22T08:06:31;100720.22;;;20.15;100.00
3917;BME280;1973;50.518;7.318;2023-05-22T08:09:00;100713.78;;;20.14;100.00
3917;BME280;1973;50.518;7.318;2023-05-22T08:11:30;100714.63;;;20.15;100.00
3917;BME280;1973;50.518;7.318;2023-05-22T08:13:57;100718.81;;;20.22;100.00
3917;BME280;1973;50.518;7.318;2023-05-22T08:16:23;100718.84;;;20.32;100.00
3917;BME280;1973;50.518;7.318;2023-05-22T08:18:50;100718.00;;;20.37;100.00
3917;BME280;1973;50.518;7.318;2023-05-22T08:21:17;100724.41;;;20.48;100.00
3917;BME280;1973;50.518;7.318;2023-05-22T08:23:44;100715.19;;;20.47;100.00
3917;BME280;1973;50.518;7.318;2023-05-22T08:26:10;100719.91;;;20.52;100.00
3917;BME280;1973;50.518;7.318;2023-05-22T08:28:36;100720.75;;;20.52;100.00
3917;BME280;1973;50.518;7.318;2023-05-22T08:31:07;100720.22;;;20.50;100.00
3917;BME280;1973;50.518;7.318;2023-05-22T08:33:33;100711.28;;;20.43;100.00
3917;BME280;1973;50.518;7.318;2023-05-22T08:36:00;100715.19;;;20.42;100.00
3917;BME280;1973;50.518;7.318;2023-05-22T08:38:26;100709.59;;;20.37;100.00
3917;BME280;1973;50.518;7.318;2023-05-22T08:40:53;100707.38;;;20.34;100.00
3917;BME280;1973;50.518;7.318;2023-05-22T08:43:21;100707.38;;;20.34;100.00
3917;BME280;1973;50.518;7.318;2023-05-22T08:45:51;100709.06;;;20.35;100.00
3917;BME280;1973;50.518;7.318;2023-05-22T08:48:22;100705.44;;;20.39;100.00
3917;BME280;1973;50.518;7.318;2023-05-22T08:50:53;100715.19;;;20.47;100.00
3917;BME280;1973;50.518;7.318;2023-05-22T08:53:23;100703.97;;;20.52;100.00
3917;BME280;1973;50.518;7.318;2023-05-22T08:55:52;100706.47;;;20.59;100.00
3917;BME280;1973;50.518;7.318;2023-05-22T08:58:19;100710.66;;;20.66;100.00
3917;BME280;1973;50.518;7.318;2023-05-22T09:00:46;100704.50;;;20.69;100.00
3917;BME280;1973;50.518;7.318;2023-05-22T09:03:13;100707.00;;;20.71;100.00
3917;BME280;1973;50.518;7.318;2023-05-22T09:05:40;100696.34;;;20.78;100.00
3917;BME280;1973;50.518;7.318;2023-05-22T09:08:07;100709.22;;;20.74;100.00
3917;BME280;1973;50.518;7.318;2023-05-22T09:10:44;100704.19;;;20.76;100.00
3917;BME280;1973;50.518;7.318;2023-05-22T09:13:23;100701.41;;;20.71;100.00
3917;BME280;1973;50.518;7.318;2023-05-22T09:15:49;100700.56;;;20.70;100.00
3917;BME280;1973;50.518;7.318;2023-05-22T09:18:16;100698.88;;;20.74;100.00
3917;BME280;1973;50.518;7.318;2023-05-22T09:20:43;100692.16;;;20.75;100.00
3917;BME280;1973;50.518;7.318;2023-05-22T09:23:14;100690.44;;;20.84;100.00
3917;BME280;1973;50.518;7.318;2023-05-22T09:25:43;100692.91;;;20.96;100.00
3917;BME280;1973;50.518;7.318;2023-05-22T09:28:11;100695.09;;;21.09;100.00
3917;BME280;1973;50.518;7.318;2023-05-22T09:30:38;100702.03;;;21.22;100.00
3917;BME280;1973;50.518;7.318;2023-05-22T09:33:05;100690.81;;;21.32;100.00
3917;BME280;1973;50.518;7.318;2023-05-22T09:35:35;100676.13;;;21.45;100.00
3917;BME280;1973;50.518;7.318;2023-05-22T09:38:04;100683.63;;;21.55;100.00
3917;BME280;1973;50.518;7.318;2023-05-22T09:40:32;100684.97;;;21.62;100.00
3917;BME280;1973;50.518;7.318;2023-05-22T09:43:01;100678.13;;;21.78;100.00
3917;BME280;1973;50.518;7.318;2023-05-22T09:45:33;100677.19;;;21.88;100.00
3917;BME280;1973;50.518;7.318;2023-05-22T09:48:05;100680.25;;;21.97;100.00
3917;BME280;1973;50.518;7.318;2023-05-22T09:50:31;100680.09;;;22.12;100.00
3917;BME280;1973;50.518;7.318;2023-05-22T09:53:02;100673.25;;;22.23;100.00
3917;BME280;1973;50.518;7.318;2023-05-22T09:55:30;100667.78;;;22.37;100.00
3917;BME280;1973;50.518;7.318;2023-05-22T09:57:59;100674.84;;;22.58;100.00
3917;BME280;1973;50.518;7.318;2023-05-22T10:00:28;100660.13;;;22.71;100.00
3917;BME280;1973;50.518;7.318;2023-05-22T10:02:57;100671.78;;;22.83;100.00
3917;BME280;1973;50.518;7.318;2023-05-22T10:05:31;100658.72;;;22.92;100.00
3917;BME280;1973;50.518;7.318;2023-05-22T10:08:08;100658.28;;;23.04;100.00
3917;BME280;1973;50.518;7.318;2023-05-22T10:10:35;100668.09;;;23.25;100.00
3917;BME280;1973;50.518;7.318;2023-05-22T10:13:04;100657.53;;;23.36;100.00
3917;BME280;1973;50.518;7.318;2023-05-22T10:15:31;100652.66;;;23.46;100.00
3917;BME280;1973;50.518;7.318;2023-05-22T10:17:59;100654.66;;;23.59;100.00
3917;BME280;1973;50.518;7.318;2023-05-22T10:20:27;100652.22;;;23.71;100.00
3917;BME280;1973;50.518;7.318;2023-05-22T10:22:54;100654.03;;;23.81;100.00
3917;BME280;1973;50.518;7.318;2023-05-22T10:25:21;100651.25;;;23.95;100.00
3917;BME280;1973;50.518;7.318;2023-05-22T10:27:51;100636.97;;;23.91;100.00
3917;BME280;1973;50.518;7.318;2023-05-22T10:30:33;100651.78;;;23.97;100.00
3917;BME280;1973;50.518;7.318;2023-05-22T10:33:22;100637.53;;;24.07;100.00
3917;BME280;1973;50.518;7.318;2023-05-22T10:36:09;100637.53;;;24.07;100.00
3917;BME280;1973;50.518;7.318;2023-05-22T10:38:46;100635.78;;;24.11;100.00
3917;BME280;1973;50.518;7.318;2023-05-22T10:41:15;100637.28;;;24.22;100.00
3917;BME280;1973;50.518;7.318;2023-05-22T10:43:42;100635.66;;;24.35;100.00
3917;BME280;1973;50.518;7.318;2023-05-22T10:46:11;100638.75;;;24.47;100.00
3917;BME280;1973;50.518;7.318;2023-05-22T10:48:39;100633.88;;;24.52;100.00
3917;BME280;1973;50.518;7.318;2023-05-22T10:51:06;100620.22;;;24.46;100.00
3917;BME280;1973;50.518;7.318;2023-05-22T10:53:35;100639.09;;;24.45;100.00
3917;BME280;1973;50.518;7.318;2023-05-22T10:56:10;100610.72;;;24.42;100.00
3917;BME280;1973;50.518;7.318;2023-05-22T10:58:39;100638.38;;;24.53;100.00
3917;BME280;1973;50.518;7.318;2023-05-22T11:03:58;100631.34;;;24.51;100.00
3917;BME280;1973;50.518;7.318;2023-05-22T11:06:44;100616.66;;;24.54;100.00
3917;BME280;1973;50.518;7.318;2023-05-22T11:09:59;100624.38;;;24.48;100.00
3917;BME280;1973;50.518;7.318;2023-05-22T11:17:26;100637.94;;;24.73;100.00
3917;BME280;1973;50.518;7.318;2023-05-22T11:19:58;100635.13;;;24.87;100.00
3917;BME280;1973;50.518;7.318;2023-05-22T11:22:30;100637.69;;;25.11;100.00
3917;BME280;1973;50.518;7.318;2023-05-22T11:24:58;100628.31;;;25.15;100.00
3917;BME280;1973;50.518;7.318;2023-05-22T11:27:25;100638.78;;;25.37;100.00
3917;BME280;1973;50.518;7.318;2023-05-22T11:29:53;100618.41;;;25.40;100.00
3917;BME280;1973;50.518;7.318;2023-05-22T11:32:19;100618.16;;;25.50;100.00
3917;BME280;1973;50.518;7.318;2023-05-22T11:34:47;100620.13;;;25.50;100.00
3917;BME280;1973;50.518;7.318;2023-05-22T11:37:19;100614.34;;;25.68;100.00
3917;BME280;1973;50.518;7.318;2023-05-22T11:39:56;100613.44;;;25.82;100.00
3917;BME280;1973;50.518;7.318;2023-05-22T11:42:23;100611.78;;;25.81;100.00
3917;BME280;1973;50.518;7.318;2023-05-22T11:44:50;100604.72;;;25.70;99.73
3917;BME280;1973;50.518;7.318;2023-05-22T11:47:16;100600.56;;;25.67;100.00
3917;BME280;1973;50.518;7.318;2023-05-22T11:49:43;100605.75;;;25.51;99.39
3917;BME280;1973;50.518;7.318;2023-05-22T11:52:10;100607.63;;;25.56;98.98
3917;BME280;1973;50.518;7.318;2023-05-22T11:54:36;100599.59;;;25.49;98.77
3917;BME280;1973;50.518;7.318;2023-05-22T11:57:07;100594.38;;;25.56;98.32
3917;BME280;1973;50.518;7.318;2023-05-22T11:59:34;100578.66;;;25.50;98.24
3917;BME280;1973;50.518;7.318;2023-05-22T12:02:01;100596.88;;;25.44;98.46
3917;BME280;1973;50.518;7.318;2023-05-22T12:04:27;100586.09;;;25.60;97.92
3917;BME280;1973;50.518;7.318;2023-05-22T12:06:54;100597.31;;;25.51;95.64
3917;BME280;1973;50.518;7.318;2023-05-22T12:09:22;100584.72;;;25.57;95.67
3917;BME280;1973;50.518;7.318;2023-05-22T12:11:48;100595.13;;;25.71;96.09
3917;BME280;1973;50.518;7.318;2023-05-22T12:14:15;100586.13;;;25.68;95.88
3917;BME280;1973;50.518;7.318;2023-05-22T12:16:42;100602.16;;;25.82;94.45
3917;BME280;1973;50.518;7.318;2023-05-22T12:19:10;100589.75;;;25.91;93.10
3917;BME280;1973;50.518;7.318;2023-05-22T12:21:38;100588.16;;;25.99;92.43
3917;BME280;1973;50.518;7.318;2023-05-22T12:24:07;100601.84;;;26.14;93.34
3917;BME280;1973;50.518;7.318;2023-05-22T12:26:34;100592.50;;;26.27;91.55
3917;BME280;1973;50.518;7.318;2023-05-22T12:29:02;100597.19;;;26.40;90.42
3917;BME280;1973;50.518;7.318;2023-05-22T12:31:35;100587.47;;;26.63;87.39
3917;BME280;1973;50.518;7.318;2023-05-22T12:34:04;100587.56;;;26.98;90.26
3917;BME280;1973;50.518;7.318;2023-05-22T12:36:39;100579.09;;;27.24;86.03
3917;BME280;1973;50.518;7.318;2023-05-22T12:39:06;100581.09;;;27.32;82.93
3917;BME280;1973;50.518;7.318;2023-05-22T12:41:35;100575.97;;;27.34;79.76
3917;BME280;1973;50.518;7.318;2023-05-22T12:44:01;100568.78;;;27.53;79.72
3917;BME280;1973;50.518;7.318;2023-05-22T12:46:30;100564.13;;;27.57;77.21
3917;BME280;1973;50.518;7.318;2023-05-22T12:48:57;100560.16;;;27.41;75.68
3917;BME280;1973;50.518;7.318;2023-05-22T12:51:25;100564.81;;;27.54;75.60
3917;BME280;1973;50.518;7.318;2023-05-22T12:53:58;100566.47;;;27.55;73.70
3917;BME280;1973;50.518;7.318;2023-05-22T12:56:25;100570.28;;;27.77;76.00
3917;BME280;1973;50.518;7.318;2023-05-22T12:58:51;100570.56;;;27.92;74.67
3917;BME280;1973;50.518;7.318;2023-05-22T13:01:18;100565.22;;;27.99;74.49
3917;BME280;1973;50.518;7.318;2023-05-22T13:03:45;100563.84;;;28.05;72.63
3917;BME280;1973;50.518;7.318;2023-05-22T13:06:11;100572.03;;;28.07;70.23
3917;BME280;1973;50.518;7.318;2023-05-22T13:08:38;100572.22;;;28.11;70.07
3917;BME280;1973;50.518;7.318;2023-05-22T13:11:04;100570.06;;;28.08;67.93
3917;BME280;1973;50.518;7.318;2023-05-22T13:13:31;100566.34;;;28.07;68.33
3917;BME280;1973;50.518;7.318;2023-05-22T13:15:57;100580.19;;;28.09;68.31
3917;BME280;1973;50.518;7.318;2023-05-22T13:18:24;100578.72;;;28.11;66.58
3917;BME280;1973;50.518;7.318;2023-05-22T13:20:50;100583.09;;;28.38;67.99
3917;BME280;1973;50.518;7.318;2023-05-22T13:23:17;100589.22;;;28.48;65.56
3917;BME280;1973;50.518;7.318;2023-05-22T13:25:43;100599.13;;;28.25;64.78
3917;BME280;1973;50.518;7.318;2023-05-22T13:28:10;100592.47;;;28.30;63.70